Standing Rock Reservation, South Dakota
Current Conditions -  °F | °C
As of 1:52 AM on Friday 24 Oct 2014 (Local Time) from KMBG Reporting Station
Clear Clear  
Wind Chill: 43°   Ceiling: Unl
Heat Index: 45°   Visibility: 10mi
Dew Point: 40°   Wind: 5mph
Humidity: 82%   Direction: 110°ESE
Pressure: 29.82"   Gusts: NA
Location:  45.0005°N, 101.234°W
Report Text: KMBG 240752Z AUTO 11004KT 10SM CLR 07/04 A2982 RMK AO2 SLP097 T00720044
Loading
Personal Weather Stations






























Interactive Weather Map
Tropical Storm Tracking
New forecast layout! Learn more

10-Day Weather Forecast

Advertisements
Track Severe Weather on mobile